sensor_id;sensor_type;location;lat;lon;timestamp;P1;durP1;ratioP1;P2;durP2;ratioP2
3465;SDS011;1747;48.884;9.160;2022-09-29T00:00:15;5.30;;;2.58;;
3465;SDS011;1747;48.884;9.160;2022-09-29T00:02:43;3.45;;;2.20;;
3465;SDS011;1747;48.884;9.160;2022-09-29T00:05:10;4.35;;;2.40;;
3465;SDS011;1747;48.884;9.160;2022-09-29T00:07:36;3.72;;;2.05;;
3465;SDS011;1747;48.884;9.160;2022-09-29T00:10:04;3.35;;;2.03;;
3465;SDS011;1747;48.884;9.160;2022-09-29T00:12:31;3.70;;;1.90;;
3465;SDS011;1747;48.884;9.160;2022-09-29T00:14:57;3.13;;;1.90;;
3465;SDS011;1747;48.884;9.160;2022-09-29T00:17:24;3.38;;;1.92;;
3465;SDS011;1747;48.884;9.160;2022-09-29T00:19:52;5.32;;;2.47;;
3465;SDS011;1747;48.884;9.160;2022-09-29T00:22:19;3.35;;;2.35;;
3465;SDS011;1747;48.884;9.160;2022-09-29T00:24:46;2.75;;;2.30;;
3465;SDS011;1747;48.884;9.160;2022-09-29T00:27:13;4.07;;;2.50;;
3465;SDS011;1747;48.884;9.160;2022-09-29T00:29:40;5.05;;;2.70;;
3465;SDS011;1747;48.884;9.160;2022-09-29T00:32:07;3.20;;;2.53;;
3465;SDS011;1747;48.884;9.160;2022-09-29T00:34:34;3.30;;;2.65;;
3465;SDS011;1747;48.884;9.160;2022-09-29T00:37:02;3.38;;;2.42;;
3465;SDS011;1747;48.884;9.160;2022-09-29T00:39:29;5.90;;;2.55;;
3465;SDS011;1747;48.884;9.160;2022-09-29T00:41:56;3.47;;;2.30;;
3465;SDS011;1747;48.884;9.160;2022-09-29T00:47:20;3.92;;;2.78;;
3465;SDS011;1747;48.884;9.160;2022-09-29T00:49:50;6.65;;;2.70;;
3465;SDS011;1747;48.884;9.160;2022-09-29T00:52:24;4.15;;;2.47;;
3465;SDS011;1747;48.884;9.160;2022-09-29T00:54:54;5.75;;;2.55;;
3465;SDS011;1747;48.884;9.160;2022-09-29T00:57:26;4.95;;;2.63;;
3465;SDS011;1747;48.884;9.160;2022-09-29T00:59:57;6.20;;;2.55;;
3465;SDS011;1747;48.884;9.160;2022-09-29T01:02:29;5.90;;;2.92;;
3465;SDS011;1747;48.884;9.160;2022-09-29T01:04:57;3.67;;;2.90;;
3465;SDS011;1747;48.884;9.160;2022-09-29T01:07:27;4.13;;;2.45;;
3465;SDS011;1747;48.884;9.160;2022-09-29T01:09:54;3.97;;;2.60;;
3465;SDS011;1747;48.884;9.160;2022-09-29T01:12:23;4.47;;;2.83;;
3465;SDS011;1747;48.884;9.160;2022-09-29T01:14:50;7.93;;;3.05;;
3465;SDS011;1747;48.884;9.160;2022-09-29T01:17:18;5.07;;;2.63;;
3465;SDS011;1747;48.884;9.160;2022-09-29T01:19:47;5.03;;;2.72;;
3465;SDS011;1747;48.884;9.160;2022-09-29T01:22:30;8.75;;;3.33;;
3465;SDS011;1747;48.884;9.160;2022-09-29T01:25:16;5.78;;;2.53;;
3465;SDS011;1747;48.884;9.160;2022-09-29T01:33:50;5.35;;;2.72;;
3465;SDS011;1747;48.884;9.160;2022-09-29T01:36:24;4.45;;;2.88;;
3465;SDS011;1747;48.884;9.160;2022-09-29T01:39:01;3.80;;;2.70;;
3465;SDS011;1747;48.884;9.160;2022-09-29T01:41:37;4.53;;;2.75;;
3465;SDS011;1747;48.884;9.160;2022-09-29T01:44:11;5.35;;;2.80;;
3465;SDS011;1747;48.884;9.160;2022-09-29T01:46:45;5.68;;;3.40;;
3465;SDS011;1747;48.884;9.160;2022-09-29T01:49:15;4.70;;;3.08;;
3465;SDS011;1747;48.884;9.160;2022-09-29T01:51:46;6.07;;;3.25;;
3465;SDS011;1747;48.884;9.160;2022-09-29T01:54:18;4.05;;;3.17;;
3465;SDS011;1747;48.884;9.160;2022-09-29T01:56:51;5.85;;;3.55;;
3465;SDS011;1747;48.884;9.160;2022-09-29T01:59:24;4.55;;;2.80;;
3465;SDS011;1747;48.884;9.160;2022-09-29T02:01:59;3.95;;;2.90;;
3465;SDS011;1747;48.884;9.160;2022-09-29T02:04:31;4.25;;;3.40;;
3465;SDS011;1747;48.884;9.160;2022-09-29T02:07:03;7.15;;;3.30;;
3465;SDS011;1747;48.884;9.160;2022-09-29T02:09:35;5.90;;;3.03;;
3465;SDS011;1747;48.884;9.160;2022-09-29T02:12:05;6.75;;;3.33;;
3465;SDS011;1747;48.884;9.160;2022-09-29T02:14:36;7.55;;;3.13;;
3465;SDS011;1747;48.884;9.160;2022-09-29T02:17:10;6.28;;;3.33;;
3465;SDS011;1747;48.884;9.160;2022-09-29T02:19:43;5.53;;;2.92;;
3465;SDS011;1747;48.884;9.160;2022-09-29T02:22:11;7.25;;;3.20;;
3465;SDS011;1747;48.884;9.160;2022-09-29T02:24:39;6.50;;;3.45;;
3465;SDS011;1747;48.884;9.160;2022-09-29T02:27:07;4.35;;;2.70;;
3465;SDS011;1747;48.884;9.160;2022-09-29T02:29:34;5.43;;;2.90;;
3465;SDS011;1747;48.884;9.160;2022-09-29T02:32:02;5.88;;;3.10;;
3465;SDS011;1747;48.884;9.160;2022-09-29T02:34:31;5.63;;;3.15;;
3465;SDS011;1747;48.884;9.160;2022-09-29T02:37:08;6.70;;;3.13;;
3465;SDS011;1747;48.884;9.160;2022-09-29T02:39:48;4.88;;;2.80;;
3465;SDS011;1747;48.884;9.160;2022-09-29T02:42:27;7.35;;;3.67;;
3465;SDS011;1747;48.884;9.160;2022-09-29T02:45:05;4.82;;;2.70;;
3465;SDS011;1747;48.884;9.160;2022-09-29T02:47:49;4.65;;;2.85;;
3465;SDS011;1747;48.884;9.160;2022-09-29T02:53:24;4.45;;;3.25;;
3465;SDS011;1747;48.884;9.160;2022-09-29T02:56:02;6.45;;;2.75;;
3465;SDS011;1747;48.884;9.160;2022-09-29T02:58:38;5.72;;;3.38;;
3465;SDS011;1747;48.884;9.160;2022-09-29T03:01:10;6.90;;;3.70;;
3465;SDS011;1747;48.884;9.160;2022-09-29T03:03:38;4.90;;;3.63;;
3465;SDS011;1747;48.884;9.160;2022-09-29T03:06:06;5.55;;;4.00;;
3465;SDS011;1747;48.884;9.160;2022-09-29T03:08:33;4.45;;;3.63;;
3465;SDS011;1747;48.884;9.160;2022-09-29T03:11:00;5.57;;;4.00;;
3465;SDS011;1747;48.884;9.160;2022-09-29T03:13:27;6.40;;;3.78;;
3465;SDS011;1747;48.884;9.160;2022-09-29T03:15:54;8.15;;;4.28;;
3465;SDS011;1747;48.884;9.160;2022-09-29T03:18:21;9.30;;;4.45;;
3465;SDS011;1747;48.884;9.160;2022-09-29T03:20:48;8.35;;;3.78;;
3465;SDS011;1747;48.884;9.160;2022-09-29T03:23:16;7.55;;;4.05;;
3465;SDS011;1747;48.884;9.160;2022-09-29T03:25:43;7.82;;;4.03;;
3465;SDS011;1747;48.884;9.160;2022-09-29T03:28:10;9.43;;;4.40;;
3465;SDS011;1747;48.884;9.160;2022-09-29T03:30:37;6.85;;;3.67;;
3465;SDS011;1747;48.884;9.160;2022-09-29T03:33:04;7.57;;;4.35;;
3465;SDS011;1747;48.884;9.160;2022-09-29T03:35:30;7.07;;;4.22;;
3465;SDS011;1747;48.884;9.160;2022-09-29T03:37:57;5.07;;;3.50;;
3465;SDS011;1747;48.884;9.160;2022-09-29T03:40:26;6.60;;;3.75;;
3465;SDS011;1747;48.884;9.160;2022-09-29T03:42:53;6.97;;;3.70;;
3465;SDS011;1747;48.884;9.160;2022-09-29T03:45:20;6.57;;;3.70;;
3465;SDS011;1747;48.884;9.160;2022-09-29T03:47:47;7.15;;;3.50;;
3465;SDS011;1747;48.884;9.160;2022-09-29T03:50:14;8.93;;;3.47;;
3465;SDS011;1747;48.884;9.160;2022-09-29T03:52:41;5.13;;;3.40;;
3465;SDS011;1747;48.884;9.160;2022-09-29T03:55:08;6.43;;;3.50;;
3465;SDS011;1747;48.884;9.160;2022-09-29T03:57:36;7.72;;;4.13;;
3465;SDS011;1747;48.884;9.160;2022-09-29T04:00:03;5.88;;;3.40;;
3465;SDS011;1747;48.884;9.160;2022-09-29T04:02:30;7.13;;;3.78;;
3465;SDS011;1747;48.884;9.160;2022-09-29T04:04:58;5.60;;;3.30;;
3465;SDS011;1747;48.884;9.160;2022-09-29T04:07:25;4.45;;;3.20;;
3465;SDS011;1747;48.884;9.160;2022-09-29T04:09:52;8.10;;;3.13;;
3465;SDS011;1747;48.884;9.160;2022-09-29T04:12:19;4.82;;;3.05;;
3465;SDS011;1747;48.884;9.160;2022-09-29T04:14:47;6.75;;;3.13;;
3465;SDS011;1747;48.884;9.160;2022-09-29T04:17:14;5.82;;;3.85;;
3465;SDS011;1747;48.884;9.160;2022-09-29T04:19:41;5.60;;;3.75;;
3465;SDS011;1747;48.884;9.160;2022-09-29T04:22:07;7.15;;;4.60;;
3465;SDS011;1747;48.884;9.160;2022-09-29T04:24:35;7.93;;;4.20;;
3465;SDS011;1747;48.884;9.160;2022-09-29T04:27:03;10.10;;;4.13;;
3465;SDS011;1747;48.884;9.160;2022-09-29T04:29:30;4.70;;;3.00;;
3465;SDS011;1747;48.884;9.160;2022-09-29T04:31:58;5.38;;;3.25;;
3465;SDS011;1747;48.884;9.160;2022-09-29T04:34:25;4.53;;;2.95;;
3465;SDS011;1747;48.884;9.160;2022-09-29T04:36:52;4.28;;;3.15;;
3465;SDS011;1747;48.884;9.160;2022-09-29T04:39:19;6.90;;;3.38;;
3465;SDS011;1747;48.884;9.160;2022-09-29T04:41:46;5.82;;;3.70;;
3465;SDS011;1747;48.884;9.160;2022-09-29T04:44:13;6.60;;;3.45;;
3465;SDS011;1747;48.884;9.160;2022-09-29T04:46:40;4.88;;;2.88;;
3465;SDS011;1747;48.884;9.160;2022-09-29T04:49:08;5.20;;;3.08;;
3465;SDS011;1747;48.884;9.160;2022-09-29T04:51:35;5.47;;;2.90;;
3465;SDS011;1747;48.884;9.160;2022-09-29T04:54:02;5.03;;;3.70;;
3465;SDS011;1747;48.884;9.160;2022-09-29T04:56:29;5.95;;;2.97;;
3465;SDS011;1747;48.884;9.160;2022-09-29T04:58:56;3.50;;;2.47;;
3465;SDS011;1747;48.884;9.160;2022-09-29T05:01:23;5.78;;;3.10;;
3465;SDS011;1747;48.884;9.160;2022-09-29T05:03:54;4.55;;;3.28;;
3465;SDS011;1747;48.884;9.160;2022-09-29T05:06:25;6.60;;;2.88;;
3465;SDS011;1747;48.884;9.160;2022-09-29T05:08:52;4.78;;;3.05;;
3465;SDS011;1747;48.884;9.160;2022-09-29T05:11:19;6.10;;;3.38;;
3465;SDS011;1747;48.884;9.160;2022-09-29T05:13:47;4.03;;;2.90;;
3465;SDS011;1747;48.884;9.160;2022-09-29T05:16:14;5.43;;;3.00;;
3465;SDS011;1747;48.884;9.160;2022-09-29T05:18:41;3.88;;;2.88;;
3465;SDS011;1747;48.884;9.160;2022-09-29T05:21:08;3.92;;;3.15;;
3465;SDS011;1747;48.884;9.160;2022-09-29T05:23:36;6.88;;;2.95;;
3465;SDS011;1747;48.884;9.160;2022-09-29T05:26:04;4.57;;;3.17;;
3465;SDS011;1747;48.884;9.160;2022-09-29T05:28:33;4.55;;;2.92;;
3465;SDS011;1747;48.884;9.160;2022-09-29T05:31:00;5.38;;;2.90;;
3465;SDS011;1747;48.884;9.160;2022-09-29T05:33:27;4.50;;;2.65;;
3465;SDS011;1747;48.884;9.160;2022-09-29T05:35:54;3.80;;;2.15;;
3465;SDS011;1747;48.884;9.160;2022-09-29T05:38:21;4.13;;;2.83;;
3465;SDS011;1747;48.884;9.160;2022-09-29T05:40:49;4.15;;;2.78;;
3465;SDS011;1747;48.884;9.160;2022-09-29T05:43:16;4.43;;;2.67;;
3465;SDS011;1747;48.884;9.160;2022-09-29T05:45:43;4.10;;;3.03;;
3465;SDS011;1747;48.884;9.160;2022-09-29T05:48:10;4.35;;;2.30;;
3465;SDS011;1747;48.884;9.160;2022-09-29T05:50:37;4.05;;;2.72;;
3465;SDS011;1747;48.884;9.160;2022-09-29T05:53:07;4.97;;;2.60;;
3465;SDS011;1747;48.884;9.160;2022-09-29T05:55:34;4.82;;;2.80;;
3465;SDS011;1747;48.884;9.160;2022-09-29T05:58:03;4.00;;;2.78;;
3465;SDS011;1747;48.884;9.160;2022-09-29T06:00:30;3.60;;;2.70;;
3465;SDS011;1747;48.884;9.160;2022-09-29T06:02:59;5.40;;;2.88;;
3465;SDS011;1747;48.884;9.160;2022-09-29T06:05:26;6.25;;;2.92;;
3465;SDS011;1747;48.884;9.160;2022-09-29T06:07:53;3.83;;;2.50;;
3465;SDS011;1747;48.884;9.160;2022-09-29T06:10:20;6.18;;;2.88;;
3465;SDS011;1747;48.884;9.160;2022-09-29T06:12:47;6.22;;;2.72;;
3465;SDS011;1747;48.884;9.160;2022-09-29T06:15:15;5.15;;;3.25;;
3465;SDS011;1747;48.884;9.160;2022-09-29T06:17:42;4.95;;;2.75;;
3465;SDS011;1747;48.884;9.160;2022-09-29T06:20:09;7.63;;;3.20;;
3465;SDS011;1747;48.884;9.160;2022-09-29T06:22:36;4.30;;;2.95;;
3465;SDS011;1747;48.884;9.160;2022-09-29T06:25:03;7.15;;;3.40;;
3465;SDS011;1747;48.884;9.160;2022-09-29T06:27:30;4.90;;;3.05;;
3465;SDS011;1747;48.884;9.160;2022-09-29T06:29:57;6.95;;;2.92;;
3465;SDS011;1747;48.884;9.160;2022-09-29T06:32:26;7.93;;;3.00;;
3465;SDS011;1747;48.884;9.160;2022-09-29T06:34:52;4.65;;;3.38;;
3465;SDS011;1747;48.884;9.160;2022-09-29T06:37:37;6.03;;;3.55;;
3465;SDS011;1747;48.884;9.160;2022-09-29T06:40:09;5.60;;;3.60;;
3465;SDS011;1747;48.884;9.160;2022-09-29T06:42:36;11.88;;;4.40;;
3465;SDS011;1747;48.884;9.160;2022-09-29T06:45:03;7.35;;;4.32;;
3465;SDS011;1747;48.884;9.160;2022-09-29T06:47:32;6.15;;;3.80;;
3465;SDS011;1747;48.884;9.160;2022-09-29T06:49:58;7.55;;;4.40;;
3465;SDS011;1747;48.884;9.160;2022-09-29T06:52:26;7.28;;;3.90;;
3465;SDS011;1747;48.884;9.160;2022-09-29T06:54:53;6.55;;;4.35;;
3465;SDS011;1747;48.884;9.160;2022-09-29T06:57:20;6.10;;;4.18;;
3465;SDS011;1747;48.884;9.160;2022-09-29T06:59:47;8.00;;;5.10;;
3465;SDS011;1747;48.884;9.160;2022-09-29T07:02:13;6.80;;;4.38;;
3465;SDS011;1747;48.884;9.160;2022-09-29T07:04:42;8.75;;;4.60;;
3465;SDS011;1747;48.884;9.160;2022-09-29T07:07:08;10.18;;;5.30;;
3465;SDS011;1747;48.884;9.160;2022-09-29T07:09:35;8.63;;;4.28;;
3465;SDS011;1747;48.884;9.160;2022-09-29T07:12:02;10.35;;;4.97;;
3465;SDS011;1747;48.884;9.160;2022-09-29T07:14:30;5.70;;;4.25;;
3465;SDS011;1747;48.884;9.160;2022-09-29T07:16:56;6.13;;;4.78;;
3465;SDS011;1747;48.884;9.160;2022-09-29T07:19:24;9.60;;;4.97;;
3465;SDS011;1747;48.884;9.160;2022-09-29T07:21:52;8.18;;;4.75;;
3465;SDS011;1747;48.884;9.160;2022-09-29T07:24:19;8.93;;;4.80;;
3465;SDS011;1747;48.884;9.160;2022-09-29T07:26:46;6.22;;;4.32;;
3465;SDS011;1747;48.884;9.160;2022-09-29T07:29:13;8.50;;;5.20;;
3465;SDS011;1747;48.884;9.160;2022-09-29T07:31:40;9.07;;;4.18;;
3465;SDS011;1747;48.884;9.160;2022-09-29T07:34:07;7.50;;;4.75;;
3465;SDS011;1747;48.884;9.160;2022-09-29T07:36:34;7.70;;;5.38;;
3465;SDS011;1747;48.884;9.160;2022-09-29T07:39:04;8.55;;;4.72;;
3465;SDS011;1747;48.884;9.160;2022-09-29T07:41:31;7.57;;;4.65;;
3465;SDS011;1747;48.884;9.160;2022-09-29T07:43:57;10.68;;;4.80;;
3465;SDS011;1747;48.884;9.160;2022-09-29T07:46:24;8.95;;;4.70;;
3465;SDS011;1747;48.884;9.160;2022-09-29T07:48:51;7.30;;;4.30;;
3465;SDS011;1747;48.884;9.160;2022-09-29T07:51:18;7.45;;;4.97;;
3465;SDS011;1747;48.884;9.160;2022-09-29T07:53:45;7.88;;;4.70;;
3465;SDS011;1747;48.884;9.160;2022-09-29T07:56:15;8.05;;;4.82;;
3465;SDS011;1747;48.884;9.160;2022-09-29T07:58:43;10.02;;;4.40;;
3465;SDS011;1747;48.884;9.160;2022-09-29T08:01:11;5.00;;;4.28;;
3465;SDS011;1747;48.884;9.160;2022-09-29T08:03:40;7.30;;;4.55;;
3465;SDS011;1747;48.884;9.160;2022-09-29T08:06:09;9.23;;;4.47;;
3465;SDS011;1747;48.884;9.160;2022-09-29T08:08:36;7.93;;;4.57;;
3465;SDS011;1747;48.884;9.160;2022-09-29T08:11:04;7.88;;;4.50;;
3465;SDS011;1747;48.884;9.160;2022-09-29T08:13:34;7.00;;;4.15;;
3465;SDS011;1747;48.884;9.160;2022-09-29T08:16:02;7.57;;;4.47;;
3465;SDS011;1747;48.884;9.160;2022-09-29T08:18:30;9.93;;;4.55;;
3465;SDS011;1747;48.884;9.160;2022-09-29T08:20:57;6.38;;;4.60;;
3465;SDS011;1747;48.884;9.160;2022-09-29T08:23:24;7.38;;;4.47;;
3465;SDS011;1747;48.884;9.160;2022-09-29T08:25:57;9.13;;;4.05;;
3465;SDS011;1747;48.884;9.160;2022-09-29T08:28:26;8.27;;;4.07;;
3465;SDS011;1747;48.884;9.160;2022-09-29T08:30:55;5.43;;;4.05;;
3465;SDS011;1747;48.884;9.160;2022-09-29T08:33:23;6.68;;;3.90;;
3465;SDS011;1747;48.884;9.160;2022-09-29T08:35:54;5.18;;;4.03;;
3465;SDS011;1747;48.884;9.160;2022-09-29T08:38:22;6.35;;;4.07;;
3465;SDS011;1747;48.884;9.160;2022-09-29T08:40:49;5.45;;;3.70;;
3465;SDS011;1747;48.884;9.160;2022-09-29T08:43:17;5.40;;;4.05;;
3465;SDS011;1747;48.884;9.160;2022-09-29T08:45:48;9.23;;;5.68;;
3465;SDS011;1747;48.884;9.160;2022-09-29T08:48:24;7.60;;;4.53;;
3465;SDS011;1747;48.884;9.160;2022-09-29T08:50:54;8.73;;;4.03;;
3465;SDS011;1747;48.884;9.160;2022-09-29T08:53:23;6.53;;;4.43;;
3465;SDS011;1747;48.884;9.160;2022-09-29T08:55:53;4.93;;;3.90;;
3465;SDS011;1747;48.884;9.160;2022-09-29T08:58:23;5.88;;;3.88;;
3465;SDS011;1747;48.884;9.160;2022-09-29T09:00:52;7.38;;;3.58;;
3465;SDS011;1747;48.884;9.160;2022-09-29T09:03:36;5.80;;;4.25;;
3465;SDS011;1747;48.884;9.160;2022-09-29T09:06:22;4.65;;;3.20;;
3465;SDS011;1747;48.884;9.160;2022-09-29T09:09:09;7.97;;;3.42;;
3465;SDS011;1747;48.884;9.160;2022-09-29T09:12:08;6.07;;;3.95;;
3465;SDS011;1747;48.884;9.160;2022-09-29T09:15:00;9.50;;;3.67;;
3465;SDS011;1747;48.884;9.160;2022-09-29T09:17:48;5.20;;;3.70;;
3465;SDS011;1747;48.884;9.160;2022-09-29T09:20:26;6.13;;;3.55;;
3465;SDS011;1747;48.884;9.160;2022-09-29T09:23:00;3.65;;;2.80;;
3465;SDS011;1747;48.884;9.160;2022-09-29T09:25:34;6.20;;;3.47;;
3465;SDS011;1747;48.884;9.160;2022-09-29T09:28:04;5.57;;;3.10;;
3465;SDS011;1747;48.884;9.160;2022-09-29T09:30:38;4.95;;;3.28;;
3465;SDS011;1747;48.884;9.160;2022-09-29T09:33:14;6.57;;;4.10;;
3465;SDS011;1747;48.884;9.160;2022-09-29T09:35:48;5.93;;;4.15;;
3465;SDS011;1747;48.884;9.160;2022-09-29T09:38:20;6.85;;;3.42;;
3465;SDS011;1747;48.884;9.160;2022-09-29T09:40:52;5.75;;;3.30;;
3465;SDS011;1747;48.884;9.160;2022-09-29T09:43:23;7.88;;;3.03;;
3465;SDS011;1747;48.884;9.160;2022-09-29T09:45:54;5.05;;;2.72;;
3465;SDS011;1747;48.884;9.160;2022-09-29T09:48:29;7.05;;;2.45;;
3465;SDS011;1747;48.884;9.160;2022-09-29T09:50:59;3.70;;;3.00;;
3465;SDS011;1747;48.884;9.160;2022-09-29T09:53:33;6.18;;;3.88;;
3465;SDS011;1747;48.884;9.160;2022-09-29T09:56:06;8.98;;;3.33;;
3465;SDS011;1747;48.884;9.160;2022-09-29T09:58:48;4.57;;;3.10;;
3465;SDS011;1747;48.884;9.160;2022-09-29T10:01:29;7.30;;;3.25;;
3465;SDS011;1747;48.884;9.160;2022-09-29T10:03:57;6.07;;;3.15;;
3465;SDS011;1747;48.884;9.160;2022-09-29T10:06:26;6.15;;;3.40;;
3465;SDS011;1747;48.884;9.160;2022-09-29T10:08:53;5.45;;;3.75;;
3465;SDS011;1747;48.884;9.160;2022-09-29T10:11:23;8.40;;;3.30;;
3465;SDS011;1747;48.884;9.160;2022-09-29T10:13:56;5.57;;;3.42;;
3465;SDS011;1747;48.884;9.160;2022-09-29T10:16:28;6.57;;;3.40;;
3465;SDS011;1747;48.884;9.160;2022-09-29T10:19:01;7.40;;;3.20;;
3465;SDS011;1747;48.884;9.160;2022-09-29T10:21:34;6.90;;;3.65;;
3465;SDS011;1747;48.884;9.160;2022-09-29T10:24:03;6.85;;;3.33;;
3465;SDS011;1747;48.884;9.160;2022-09-29T10:26:32;3.92;;;2.63;;
3465;SDS011;1747;48.884;9.160;2022-09-29T10:29:03;3.83;;;2.60;;
3465;SDS011;1747;48.884;9.160;2022-09-29T10:31:56;4.25;;;2.50;;
3465;SDS011;1747;48.884;9.160;2022-09-29T10:34:26;3.97;;;2.40;;
3465;SDS011;1747;48.884;9.160;2022-09-29T10:36:55;2.97;;;2.25;;
3465;SDS011;1747;48.884;9.160;2022-09-29T10:39:37;6.13;;;2.38;;
3465;SDS011;1747;48.884;9.160;2022-09-29T10:42:18;3.25;;;2.05;;
3465;SDS011;1747;48.884;9.160;2022-09-29T10:44:50;4.72;;;2.20;;
3465;SDS011;1747;48.884;9.160;2022-09-29T10:47:19;4.55;;;2.42;;
3465;SDS011;1747;48.884;9.160;2022-09-29T10:49:48;4.25;;;2.30;;
3465;SDS011;1747;48.884;9.160;2022-09-29T10:52:33;4.70;;;2.17;;
3465;SDS011;1747;48.884;9.160;2022-09-29T10:55:01;4.18;;;2.42;;
3465;SDS011;1747;48.884;9.160;2022-09-29T10:57:30;4.85;;;2.38;;
3465;SDS011;1747;48.884;9.160;2022-09-29T10:59:58;6.18;;;2.80;;
3465;SDS011;1747;48.884;9.160;2022-09-29T11:02:28;3.83;;;2.40;;
3465;SDS011;1747;48.884;9.160;2022-09-29T11:04:59;4.22;;;2.90;;
3465;SDS011;1747;48.884;9.160;2022-09-29T11:07:28;4.30;;;2.85;;
3465;SDS011;1747;48.884;9.160;2022-09-29T11:09:55;4.28;;;2.40;;
3465;SDS011;1747;48.884;9.160;2022-09-29T11:12:30;4.68;;;2.47;;
3465;SDS011;1747;48.884;9.160;2022-09-29T11:14:58;3.00;;;2.30;;
3465;SDS011;1747;48.884;9.160;2022-09-29T11:17:26;5.25;;;2.50;;
3465;SDS011;1747;48.884;9.160;2022-09-29T11:19:56;4.45;;;2.20;;
3465;SDS011;1747;48.884;9.160;2022-09-29T11:22:45;3.15;;;2.08;;
3465;SDS011;1747;48.884;9.160;2022-09-29T11:25:28;3.97;;;2.10;;
3465;SDS011;1747;48.884;9.160;2022-09-29T11:31:16;3.45;;;1.92;;
3465;SDS011;1747;48.884;9.160;2022-09-29T11:33:56;4.82;;;2.25;;
3465;SDS011;1747;48.884;9.160;2022-09-29T11:36:40;2.85;;;1.73;;
3465;SDS011;1747;48.884;9.160;2022-09-29T11:39:16;3.25;;;1.90;;
3465;SDS011;1747;48.884;9.160;2022-09-29T11:41:59;3.25;;;2.30;;
3465;SDS011;1747;48.884;9.160;2022-09-29T11:44:46;3.70;;;2.13;;
3465;SDS011;1747;48.884;9.160;2022-09-29T11:47:28;2.25;;;1.75;;
3465;SDS011;1747;48.884;9.160;2022-09-29T11:50:17;2.33;;;1.42;;
3465;SDS011;1747;48.884;9.160;2022-09-29T11:53:03;3.05;;;1.73;;
3465;SDS011;1747;48.884;9.160;2022-09-29T11:55:48;4.15;;;1.50;;
3465;SDS011;1747;48.884;9.160;2022-09-29T11:58:36;5.78;;;1.80;;
3465;SDS011;1747;48.884;9.160;2022-09-29T12:04:02;3.47;;;1.65;;
3465;SDS011;1747;48.884;9.160;2022-09-29T12:06:51;2.60;;;1.67;;
3465;SDS011;1747;48.884;9.160;2022-09-29T12:12:22;2.45;;;1.15;;
3465;SDS011;1747;48.884;9.160;2022-09-29T12:17:47;3.38;;;1.30;;
3465;SDS011;1747;48.884;9.160;2022-09-29T12:20:18;2.05;;;1.25;;
3465;SDS011;1747;48.884;9.160;2022-09-29T12:22:48;3.67;;;1.55;;
3465;SDS011;1747;48.884;9.160;2022-09-29T12:25:18;6.78;;;1.20;;
3465;SDS011;1747;48.884;9.160;2022-09-29T12:27:50;1.58;;;1.33;;
3465;SDS011;1747;48.884;9.160;2022-09-29T12:30:20;2.65;;;1.20;;
3465;SDS011;1747;48.884;9.160;2022-09-29T12:32:51;1.20;;;1.10;;
3465;SDS011;1747;48.884;9.160;2022-09-29T12:35:24;3.58;;;1.40;;
3465;SDS011;1747;48.884;9.160;2022-09-29T12:37:58;2.95;;;1.45;;
3465;SDS011;1747;48.884;9.160;2022-09-29T12:40:34;2.40;;;1.38;;
3465;SDS011;1747;48.884;9.160;2022-09-29T12:43:07;3.45;;;1.40;;
3465;SDS011;1747;48.884;9.160;2022-09-29T12:45:39;6.35;;;2.03;;
3465;SDS011;1747;48.884;9.160;2022-09-29T12:48:18;4.25;;;1.75;;
3465;SDS011;1747;48.884;9.160;2022-09-29T12:50:56;5.63;;;1.90;;
3465;SDS011;1747;48.884;9.160;2022-09-29T12:53:28;2.25;;;1.60;;
3465;SDS011;1747;48.884;9.160;2022-09-29T12:56:01;6.35;;;1.95;;
3465;SDS011;1747;48.884;9.160;2022-09-29T12:58:32;4.28;;;2.25;;
3465;SDS011;1747;48.884;9.160;2022-09-29T13:01:10;3.28;;;2.45;;
3465;SDS011;1747;48.884;9.160;2022-09-29T13:04:00;3.17;;;2.05;;
3465;SDS011;1747;48.884;9.160;2022-09-29T13:06:58;7.25;;;1.88;;
3465;SDS011;1747;48.884;9.160;2022-09-29T13:09:56;4.95;;;2.15;;
3465;SDS011;1747;48.884;9.160;2022-09-29T13:12:58;3.58;;;2.10;;
3465;SDS011;1747;48.884;9.160;2022-09-29T13:15:41;4.15;;;2.00;;
3465;SDS011;1747;48.884;9.160;2022-09-29T13:18:25;4.03;;;2.20;;
3465;SDS011;1747;48.884;9.160;2022-09-29T13:21:08;5.70;;;2.38;;
3465;SDS011;1747;48.884;9.160;2022-09-29T13:23:47;3.58;;;1.90;;
3465;SDS011;1747;48.884;9.160;2022-09-29T13:26:30;6.32;;;1.85;;
3465;SDS011;1747;48.884;9.160;2022-09-29T13:29:17;3.40;;;1.73;;
3465;SDS011;1747;48.884;9.160;2022-09-29T13:31:47;2.72;;;1.73;;
3465;SDS011;1747;48.884;9.160;2022-09-29T13:34:18;3.70;;;1.60;;
3465;SDS011;1747;48.884;9.160;2022-09-29T13:36:54;3.33;;;1.40;;
3465;SDS011;1747;48.884;9.160;2022-09-29T13:39:32;2.67;;;1.80;;
3465;SDS011;1747;48.884;9.160;2022-09-29T13:45:14;3.25;;;1.70;;
3465;SDS011;1747;48.884;9.160;2022-09-29T13:48:01;4.95;;;2.10;;
3465;SDS011;1747;48.884;9.160;2022-09-29T13:50:49;5.40;;;1.88;;
3465;SDS011;1747;48.884;9.160;2022-09-29T13:53:26;2.97;;;1.90;;
3465;SDS011;1747;48.884;9.160;2022-09-29T13:56:08;3.97;;;1.70;;
3465;SDS011;1747;48.884;9.160;2022-09-29T13:58:38;3.53;;;1.92;;
3465;SDS011;1747;48.884;9.160;2022-09-29T14:01:31;6.82;;;2.05;;
3465;SDS011;1747;48.884;9.160;2022-09-29T14:06:57;2.53;;;1.67;;
3465;SDS011;1747;48.884;9.160;2022-09-29T14:09:27;5.03;;;1.83;;
3465;SDS011;1747;48.884;9.160;2022-09-29T14:11:57;3.75;;;1.70;;
3465;SDS011;1747;48.884;9.160;2022-09-29T14:14:28;5.00;;;1.60;;
3465;SDS011;1747;48.884;9.160;2022-09-29T14:17:00;3.65;;;1.65;;
3465;SDS011;1747;48.884;9.160;2022-09-29T14:19:33;4.57;;;1.88;;
3465;SDS011;1747;48.884;9.160;2022-09-29T14:25:29;3.45;;;1.50;;
3465;SDS011;1747;48.884;9.160;2022-09-29T14:28:18;2.50;;;1.48;;
3465;SDS011;1747;48.884;9.160;2022-09-29T14:30:55;3.25;;;1.40;;
3465;SDS011;1747;48.884;9.160;2022-09-29T14:33:29;1.98;;;1.45;;
3465;SDS011;1747;48.884;9.160;2022-09-29T14:36:04;4.60;;;1.42;;
3465;SDS011;1747;48.884;9.160;2022-09-29T14:38:39;5.43;;;1.70;;
3465;SDS011;1747;48.884;9.160;2022-09-29T14:41:25;2.60;;;1.30;;
3465;SDS011;1747;48.884;9.160;2022-09-29T14:43:56;3.88;;;1.58;;
3465;SDS011;1747;48.884;9.160;2022-09-29T14:46:36;2.42;;;1.30;;
3465;SDS011;1747;48.884;9.160;2022-09-29T14:49:47;2.10;;;1.33;;
3465;SDS011;1747;48.884;9.160;2022-09-29T14:52:50;2.15;;;1.20;;
3465;SDS011;1747;48.884;9.160;2022-09-29T14:55:30;2.85;;;2.00;;
3465;SDS011;1747;48.884;9.160;2022-09-29T14:58:11;1.85;;;1.27;;
3465;SDS011;1747;48.884;9.160;2022-09-29T15:00:54;1.95;;;1.17;;
3465;SDS011;1747;48.884;9.160;2022-09-29T15:03:28;2.13;;;1.30;;
3465;SDS011;1747;48.884;9.160;2022-09-29T15:06:05;2.72;;;1.38;;
3465;SDS011;1747;48.884;9.160;2022-09-29T15:08:36;2.60;;;1.52;;
3465;SDS011;1747;48.884;9.160;2022-09-29T15:11:19;3.50;;;1.52;;
3465;SDS011;1747;48.884;9.160;2022-09-29T15:13:49;3.22;;;1.20;;
3465;SDS011;1747;48.884;9.160;2022-09-29T15:16:17;2.05;;;1.23;;
3465;SDS011;1747;48.884;9.160;2022-09-29T15:19:00;5.15;;;1.48;;
3465;SDS011;1747;48.884;9.160;2022-09-29T15:21:46;5.57;;;1.40;;
3465;SDS011;1747;48.884;9.160;2022-09-29T15:24:23;2.22;;;1.58;;
3465;SDS011;1747;48.884;9.160;2022-09-29T15:27:08;2.95;;;1.58;;
3465;SDS011;1747;48.884;9.160;2022-09-29T15:29:41;5.22;;;1.50;;
3465;SDS011;1747;48.884;9.160;2022-09-29T15:32:16;3.63;;;1.10;;
3465;SDS011;1747;48.884;9.160;2022-09-29T15:34:47;2.28;;;1.58;;
3465;SDS011;1747;48.884;9.160;2022-09-29T15:37:17;3.72;;;1.60;;
3465;SDS011;1747;48.884;9.160;2022-09-29T15:39:46;3.47;;;1.50;;
3465;SDS011;1747;48.884;9.160;2022-09-29T15:42:16;2.33;;;1.35;;
3465;SDS011;1747;48.884;9.160;2022-09-29T15:44:48;5.35;;;1.83;;
3465;SDS011;1747;48.884;9.160;2022-09-29T15:47:20;1.98;;;1.20;;
3465;SDS011;1747;48.884;9.160;2022-09-29T15:49:51;2.75;;;1.50;;
3465;SDS011;1747;48.884;9.160;2022-09-29T15:52:20;2.60;;;1.58;;
3465;SDS011;1747;48.884;9.160;2022-09-29T15:54:55;2.75;;;1.45;;
3465;SDS011;1747;48.884;9.160;2022-09-29T15:57:27;4.20;;;1.60;;
3465;SDS011;1747;48.884;9.160;2022-09-29T16:03:20;2.75;;;1.50;;
3465;SDS011;1747;48.884;9.160;2022-09-29T16:06:05;5.20;;;2.10;;
3465;SDS011;1747;48.884;9.160;2022-09-29T16:08:45;5.72;;;2.30;;
3465;SDS011;1747;48.884;9.160;2022-09-29T16:11:20;2.92;;;1.58;;
3465;SDS011;1747;48.884;9.160;2022-09-29T16:13:50;3.67;;;1.73;;
3465;SDS011;1747;48.884;9.160;2022-09-29T16:16:24;3.95;;;1.85;;
3465;SDS011;1747;48.884;9.160;2022-09-29T16:18:54;1.73;;;1.30;;
3465;SDS011;1747;48.884;9.160;2022-09-29T16:21:31;2.83;;;1.55;;